createdAt,value
2019-05-09T00:02:38.337Z,89.88
2019-05-09T00:05:08.933Z,90.03
2019-05-09T00:07:39.282Z,89.82
2019-05-09T00:10:09.242Z,89.06
2019-05-09T00:12:39.071Z,89.49
2019-05-09T00:15:08.774Z,89.49
2019-05-09T00:17:43.824Z,89.64
2019-05-09T00:20:30.290Z,90.05
2019-05-09T00:23:03.283Z,90.05
2019-05-09T00:25:33.978Z,90.06
2019-05-09T00:28:05.843Z,89.67
2019-05-09T00:30:56.713Z,89.86
2019-05-09T00:33:29.055Z,89.73
2019-05-09T00:35:58.833Z,89.86
2019-05-09T00:38:43.433Z,89.77
2019-05-09T00:41:13.950Z,89.77
2019-05-09T00:43:48.626Z,90.28
2019-05-09T00:46:23.994Z,90.28
2019-05-09T00:49:18.856Z,90.13
2019-05-09T00:51:48.772Z,90.37
2019-05-09T00:54:20.700Z,89.96
2019-05-09T00:56:50.862Z,90.17
2019-05-09T00:59:20.592Z,90.35
2019-05-09T01:01:50.596Z,90.66
2019-05-09T01:04:20.407Z,90.33
2019-05-09T01:06:50.092Z,90.38
2019-05-09T01:09:20.698Z,90.69
2019-05-09T01:11:50.423Z,90.04
2019-05-09T01:14:20.133Z,90.04
2019-05-09T01:16:49.945Z,90.62
2019-05-09T01:19:19.750Z,90.69
2019-05-09T01:21:49.562Z,90.25
2019-05-09T01:24:19.158Z,90.32
2019-05-09T01:26:48.795Z,90.61
2019-05-09T01:29:19.112Z,90.61
2019-05-09T01:31:49.045Z,90.16
2019-05-09T01:34:23.964Z,90.16
2019-05-09T01:37:11.115Z,90.01
2019-05-09T01:39:40.967Z,90.45
2019-05-09T01:42:11.187Z,90.45
2019-05-09T01:44:40.876Z,90.71
2019-05-09T01:47:11.099Z,91.15
2019-05-09T01:49:43.132Z,91.40
2019-05-09T01:52:13.735Z,91.40
2019-05-09T01:54:45.237Z,91.58
2019-05-09T01:57:15.282Z,91.43
2019-05-09T01:59:44.984Z,91.43
2019-05-09T02:02:15.010Z,91.73
2019-05-09T02:04:44.871Z,91.73
2019-05-09T02:07:14.438Z,91.15
2019-05-09T02:09:45.095Z,91.21
2019-05-09T02:12:14.842Z,91.01
2019-05-09T02:14:54.354Z,91.01
2019-05-09T02:17:58.219Z,90.72
2019-05-09T02:20:17.418Z,90.72
2019-05-09T02:22:47.120Z,90.74
2019-05-09T02:25:16.838Z,90.71
2019-05-09T02:27:48.156Z,90.71
2019-05-09T02:30:18.376Z,90.85
2019-05-09T02:32:48.106Z,90.67
2019-05-09T02:35:17.748Z,90.85
2019-05-09T02:37:49.802Z,91.08
2019-05-09T02:40:19.247Z,91.08
2019-05-09T02:42:49.224Z,91.24
2019-05-09T02:45:19.563Z,91.24
2019-05-09T02:47:49.258Z,90.32
2019-05-09T02:50:19.705Z,90.28
2019-05-09T02:52:49.512Z,90.28
2019-05-09T02:55:19.299Z,90.62
2019-05-09T02:57:50.807Z,90.62
2019-05-09T03:00:39.861Z,90.37
2019-05-09T03:03:19.796Z,90.37
2019-05-09T03:05:49.487Z,89.68
2019-05-09T03:08:19.612Z,89.68
2019-05-09T03:10:49.495Z,90.16
2019-05-09T03:13:19.462Z,89.85
2019-05-09T03:15:51.021Z,89.85
2019-05-09T03:18:21.085Z,89.89
2019-05-09T03:21:00.564Z,89.84
2019-05-09T03:23:30.156Z,89.92
2019-05-09T03:26:00.220Z,89.69
2019-05-09T03:28:49.218Z,90.37
2019-05-09T03:31:20.027Z,90.37
2019-05-09T03:33:50.454Z,90.77
2019-05-09T03:36:21.302Z,90.91
2019-05-09T03:38:51.438Z,90.91
2019-05-09T03:41:21.200Z,90.63
2019-05-09T03:43:51.009Z,90.55
2019-05-09T03:46:38.404Z,90.55
2019-05-09T03:49:08.928Z,90.71
2019-05-09T03:51:39.182Z,90.11
2019-05-09T03:54:09.209Z,90.69
2019-05-09T03:56:42.941Z,90.69
2019-05-09T03:59:12.822Z,91.01
2019-05-09T04:01:42.514Z,91.21
2019-05-09T04:04:12.117Z,91.53
2019-05-09T04:06:42.225Z,91.84
2019-05-09T04:09:12.342Z,91.84
2019-05-09T04:11:42.146Z,91.61
2019-05-09T04:14:17.562Z,91.14
2019-05-09T04:16:48.256Z,91.04
2019-05-09T04:19:18.023Z,91.04
2019-05-09T04:21:48.637Z,91.36
2019-05-09T04:24:18.217Z,91.35
2019-05-09T04:26:53.378Z,91.35
2019-05-09T04:29:24.125Z,91.26
2019-05-09T04:31:54.351Z,91.04
2019-05-09T04:34:23.922Z,91.19
2019-05-09T04:36:57.442Z,91.37
2019-05-09T04:39:28.368Z,91.12
2019-05-09T04:42:03.530Z,90.72
2019-05-09T04:44:57.490Z,90.72
2019-05-09T04:47:27.652Z,90.86
2019-05-09T04:49:58.442Z,90.38
2019-05-09T04:52:30.418Z,89.89
2019-05-09T04:55:00.187Z,89.89
2019-05-09T04:57:31.288Z,89.82
2019-05-09T05:00:02.461Z,89.82
2019-05-09T05:02:50.112Z,90.20
2019-05-09T05:05:20.087Z,90.20
2019-05-09T05:07:50.253Z,90.00
2019-05-09T05:10:19.954Z,90.00
2019-05-09T05:12:50.332Z,88.99
2019-05-09T05:15:20.725Z,89.36
2019-05-09T05:17:51.000Z,89.19
2019-05-09T05:20:23.804Z,89.16
2019-05-09T05:22:59.489Z,89.16
2019-05-09T05:25:29.196Z,89.11
2019-05-09T05:27:58.867Z,89.11
2019-05-09T05:30:29.252Z,89.53
2019-05-09T05:33:10.389Z,88.77
2019-05-09T05:35:47.911Z,88.75
2019-05-09T05:38:17.734Z,88.75
2019-05-09T05:40:49.687Z,88.23
2019-05-09T05:43:18.900Z,88.01
2019-05-09T05:45:58.785Z,87.33
2019-05-09T05:48:29.967Z,87.33
2019-05-09T05:50:59.442Z,87.27
2019-05-09T05:53:29.170Z,87.29
2019-05-09T05:55:58.978Z,86.68
2019-05-09T05:58:29.081Z,86.68
2019-05-09T06:00:59.130Z,86.31
2019-05-09T06:03:29.016Z,86.48
2019-05-09T06:05:59.289Z,86.40
2019-05-09T06:08:29.005Z,86.54
2019-05-09T06:10:58.659Z,86.54
2019-05-09T06:13:28.373Z,85.92
2019-05-09T06:15:59.095Z,86.23
2019-05-09T06:18:29.029Z,86.07
2019-05-09T06:20:58.763Z,85.58
2019-05-09T06:23:28.545Z,85.73
2019-05-09T06:25:59.279Z,85.73
2019-05-09T06:28:37.647Z,85.74
2019-05-09T06:31:09.953Z,85.37
2019-05-09T06:33:46.321Z,84.73
2019-05-09T06:36:11.147Z,84.27
2019-05-09T06:38:41.007Z,84.27
2019-05-09T06:41:12.245Z,84.03
2019-05-09T06:43:44.250Z,83.88
2019-05-09T06:46:29.456Z,83.69
2019-05-09T06:49:23.333Z,83.54
2019-05-09T06:51:35.399Z,84.10
2019-05-09T06:54:05.493Z,84.10
2019-05-09T06:56:35.258Z,83.04
2019-05-09T06:59:07.387Z,84.04
2019-05-09T07:01:57.975Z,84.04
2019-05-09T07:04:58.222Z,83.51
2019-05-09T07:07:53.351Z,82.30
2019-05-09T07:10:23.711Z,82.20
2019-05-09T07:12:53.236Z,82.20
2019-05-09T07:15:23.191Z,80.79
2019-05-09T07:17:53.777Z,80.79
2019-05-09T07:20:23.570Z,80.91
2019-05-09T07:22:58.349Z,80.50
2019-05-09T07:25:47.838Z,79.24
2019-05-09T07:28:20.505Z,79.24
2019-05-09T07:31:21.148Z,80.17
2019-05-09T07:33:59.478Z,80.17
2019-05-09T07:36:30.406Z,79.94
2019-05-09T07:39:01.135Z,80.04
2019-05-09T07:41:33.764Z,78.36
2019-05-09T07:44:03.564Z,78.36
2019-05-09T07:46:34.871Z,79.01
2019-05-09T07:49:08.631Z,79.81
2019-05-09T07:51:38.523Z,79.47
2019-05-09T07:54:20.562Z,79.09
2019-05-09T07:56:42.197Z,79.09
2019-05-09T07:59:12.014Z,78.27
2019-05-09T08:01:45.422Z,78.08
2019-05-09T08:04:18.222Z,77.06
2019-05-09T08:06:48.767Z,77.06
2019-05-09T08:09:18.855Z,76.85
2019-05-09T08:11:50.150Z,77.29
2019-05-09T08:14:21.414Z,76.51
2019-05-09T08:16:54.214Z,76.51
2019-05-09T08:19:24.414Z,76.50
2019-05-09T08:21:54.251Z,74.74
2019-05-09T08:24:24.045Z,74.29
2019-05-09T08:26:54.085Z,74.35
2019-05-09T08:29:24.535Z,74.35
2019-05-09T08:31:58.054Z,74.51
2019-05-09T08:34:28.486Z,75.61
2019-05-09T08:36:58.809Z,75.73
2019-05-09T08:39:28.734Z,75.73
2019-05-09T08:41:59.462Z,75.15
2019-05-09T08:44:31.242Z,74.73
2019-05-09T08:47:01.902Z,74.63
2019-05-09T08:49:41.823Z,74.96
2019-05-09T08:52:16.610Z,75.09
2019-05-09T08:54:51.378Z,74.93
2019-05-09T08:57:23.855Z,74.93
2019-05-09T08:59:53.680Z,75.18
2019-05-09T09:02:23.983Z,74.63
2019-05-09T09:04:53.801Z,74.29
2019-05-09T09:07:24.385Z,75.30
2019-05-09T09:09:53.950Z,75.30
2019-05-09T09:12:31.328Z,73.78
2019-05-09T09:14:55.209Z,73.42
2019-05-09T09:17:25.087Z,73.42
2019-05-09T09:19:54.750Z,72.98
2019-05-09T09:22:24.425Z,72.14
2019-05-09T09:24:54.026Z,72.15
2019-05-09T09:27:24.023Z,70.17
2019-05-09T09:29:53.779Z,70.44
2019-05-09T09:32:23.242Z,70.44
2019-05-09T09:34:53.293Z,69.06
2019-05-09T09:37:23.429Z,68.96
2019-05-09T09:39:53.435Z,69.51
2019-05-09T09:42:23.923Z,69.51
2019-05-09T09:44:58.543Z,69.74
2019-05-09T09:47:28.803Z,69.58
2019-05-09T09:50:00.530Z,70.06
2019-05-09T09:52:34.151Z,70.06
2019-05-09T09:55:01.594Z,70.26
2019-05-09T09:57:33.356Z,69.79
2019-05-09T10:00:20.563Z,69.80
2019-05-09T10:02:50.233Z,69.80
2019-05-09T10:05:20.882Z,67.79
2019-05-09T10:07:50.698Z,68.34
2019-05-09T10:10:34.035Z,68.34
2019-05-09T10:13:04.308Z,67.43
2019-05-09T10:15:58.886Z,67.43
2019-05-09T10:18:57.849Z,66.75
2019-05-09T10:21:30.886Z,67.07
2019-05-09T10:24:00.898Z,67.32
2019-05-09T10:26:30.461Z,66.38
2019-05-09T10:28:59.937Z,66.38
2019-05-09T10:31:30.733Z,63.59
2019-05-09T10:34:00.758Z,63.59
2019-05-09T10:36:30.670Z,64.50
2019-05-09T10:39:01.035Z,65.09
2019-05-09T10:41:31.117Z,64.56
2019-05-09T10:44:25.300Z,62.95
2019-05-09T10:47:02.537Z,64.12
2019-05-09T10:49:32.995Z,62.24
2019-05-09T10:52:03.764Z,63.55
2019-05-09T10:54:33.689Z,64.79
2019-05-09T10:57:03.702Z,64.79
2019-05-09T10:59:37.700Z,64.05
2019-05-09T11:02:09.518Z,64.99
2019-05-09T11:04:42.936Z,67.23
2019-05-09T11:07:11.144Z,67.23
2019-05-09T11:09:40.777Z,66.66
2019-05-09T11:12:10.291Z,67.60
2019-05-09T11:14:40.177Z,66.06
2019-05-09T11:17:18.447Z,66.06
2019-05-09T11:19:48.048Z,63.98
2019-05-09T11:22:18.440Z,63.98
2019-05-09T11:24:51.079Z,63.82
2019-05-09T11:27:29.086Z,63.14
2019-05-09T11:29:58.155Z,63.14
2019-05-09T11:32:27.967Z,62.94
2019-05-09T11:34:58.183Z,62.42
2019-05-09T11:37:29.204Z,62.42
2019-05-09T11:40:00.668Z,62.35
2019-05-09T11:42:33.414Z,62.35
2019-05-09T11:45:03.227Z,62.68
2019-05-09T11:47:39.708Z,62.95
2019-05-09T11:50:04.782Z,61.37
2019-05-09T11:52:34.427Z,62.25
2019-05-09T11:55:07.819Z,62.25
2019-05-09T11:57:38.453Z,64.68
2019-05-09T12:00:08.278Z,64.68
2019-05-09T12:02:38.651Z,65.86
2019-05-09T12:05:08.959Z,65.54
2019-05-09T12:07:38.930Z,65.69
2019-05-09T12:10:08.749Z,65.69
2019-05-09T12:12:39.151Z,65.77
2019-05-09T12:15:10.218Z,64.76
2019-05-09T12:17:56.548Z,64.76
2019-05-09T12:20:18.050Z,63.90
2019-05-09T12:22:49.688Z,63.06
2019-05-09T12:25:19.257Z,63.06
2019-05-09T12:27:48.907Z,61.84
2019-05-09T12:30:19.059Z,61.37
2019-05-09T12:32:49.136Z,61.06
2019-05-09T12:35:19.339Z,61.06
2019-05-09T12:37:49.110Z,61.00
2019-05-09T12:40:20.060Z,60.75
2019-05-09T12:42:50.540Z,60.75
2019-05-09T12:45:22.155Z,60.68
2019-05-09T12:48:06.095Z,63.13
2019-05-09T12:50:23.344Z,63.13
2019-05-09T12:52:54.399Z,63.99
2019-05-09T12:55:23.926Z,65.21
2019-05-09T12:57:53.893Z,65.92
2019-05-09T13:00:23.888Z,65.92
2019-05-09T13:02:53.635Z,66.38
2019-05-09T13:05:27.353Z,65.49
2019-05-09T13:07:57.821Z,66.56
2019-05-09T13:10:30.914Z,66.56
2019-05-09T13:13:00.752Z,64.25
2019-05-09T13:15:41.077Z,64.25
2019-05-09T13:18:21.844Z,63.90
2019-05-09T13:20:42.798Z,64.04
2019-05-09T13:23:12.776Z,64.04
2019-05-09T13:25:43.558Z,62.90
2019-05-09T13:28:13.301Z,62.90
2019-05-09T13:30:43.132Z,63.38
2019-05-09T13:33:13.079Z,62.12
2019-05-09T13:35:42.618Z,62.94
2019-05-09T13:38:12.083Z,64.22
2019-05-09T13:40:41.747Z,64.73
2019-05-09T13:43:11.293Z,65.12
2019-05-09T13:45:41.127Z,65.76
2019-05-09T13:48:27.046Z,65.42
2019-05-09T13:50:41.703Z,65.08
2019-05-09T13:53:11.500Z,64.77
2019-05-09T13:55:41.643Z,64.77
2019-05-09T13:58:13.379Z,63.19
2019-05-09T14:00:55.781Z,63.30
2019-05-09T14:03:15.049Z,63.30
2019-05-09T14:05:47.950Z,60.73
2019-05-09T14:08:18.196Z,60.73
2019-05-09T14:10:48.676Z,60.16
2019-05-09T14:13:19.206Z,59.31
2019-05-09T14:15:49.703Z,59.31
2019-05-09T14:18:19.785Z,59.58
2019-05-09T14:20:50.099Z,60.48
2019-05-09T14:23:19.664Z,60.48
2019-05-09T14:25:52.276Z,58.64
2019-05-09T14:28:21.693Z,58.59
2019-05-09T14:30:51.972Z,59.96
2019-05-09T14:33:21.481Z,59.35
2019-05-09T14:35:51.109Z,59.38
2019-05-09T14:38:20.641Z,60.11
2019-05-09T14:40:53.201Z,60.11
2019-05-09T14:43:23.034Z,60.44
2019-05-09T14:45:52.603Z,60.98
2019-05-09T14:48:25.320Z,61.67
2019-05-09T14:50:55.353Z,61.67
2019-05-09T14:53:24.986Z,61.58
2019-05-09T14:55:55.174Z,60.75
2019-05-09T14:58:25.126Z,60.81
2019-05-09T15:00:55.030Z,61.30
2019-05-09T15:03:24.706Z,61.30
2019-05-09T15:05:57.364Z,63.02
2019-05-09T15:08:27.984Z,61.47
2019-05-09T15:10:58.370Z,61.19
2019-05-09T15:13:28.716Z,61.76
2019-05-09T15:16:01.129Z,63.11
2019-05-09T15:18:32.103Z,63.11
2019-05-09T15:21:01.914Z,61.65
2019-05-09T15:23:33.564Z,61.65
2019-05-09T15:26:03.662Z,62.08
2019-05-09T15:28:33.500Z,62.08
2019-05-09T15:31:08.709Z,62.39
2019-05-09T15:33:37.690Z,62.81
2019-05-09T15:36:09.183Z,63.82
2019-05-09T15:38:43.119Z,62.75
2019-05-09T15:41:12.313Z,63.43
2019-05-09T15:43:49.529Z,63.43
2019-05-09T15:46:27.957Z,63.74
2019-05-09T15:48:58.279Z,64.30
2019-05-09T15:51:28.214Z,64.30
2019-05-09T15:53:58.250Z,64.06
2019-05-09T15:56:28.847Z,64.06
2019-05-09T15:58:58.689Z,62.97
2019-05-09T16:01:28.914Z,62.97
2019-05-09T16:03:58.631Z,61.19
2019-05-09T16:06:32.896Z,60.86
2019-05-09T16:09:00.670Z,60.86
2019-05-09T16:11:30.250Z,58.87
2019-05-09T16:14:03.015Z,56.07
2019-05-09T16:16:31.205Z,56.07
2019-05-09T16:19:01.030Z,54.95
2019-05-09T16:21:30.823Z,54.95
2019-05-09T16:24:00.415Z,56.04
2019-05-09T16:26:30.414Z,56.82
2019-05-09T16:28:59.977Z,56.82
2019-05-09T16:31:30.563Z,58.32
2019-05-09T16:34:09.163Z,58.05
2019-05-09T16:36:42.016Z,58.05
2019-05-09T16:39:15.069Z,57.72
2019-05-09T16:41:45.142Z,60.07
2019-05-09T16:44:15.164Z,60.11
2019-05-09T16:46:45.188Z,60.11
2019-05-09T16:49:17.520Z,59.44
2019-05-09T16:51:48.529Z,60.04
2019-05-09T16:54:18.106Z,60.42
2019-05-09T16:56:48.404Z,60.64
2019-05-09T16:59:18.500Z,59.38
2019-05-09T17:01:50.277Z,60.07
2019-05-09T17:04:19.976Z,61.53
2019-05-09T17:06:51.238Z,61.16
2019-05-09T17:09:24.140Z,61.87
2019-05-09T17:11:54.131Z,61.81
2019-05-09T17:14:23.647Z,63.19
2019-05-09T17:16:53.698Z,63.19
2019-05-09T17:19:25.163Z,63.83
2019-05-09T17:22:14.670Z,63.83
2019-05-09T17:24:48.212Z,65.59
2019-05-09T17:27:18.816Z,65.59
2019-05-09T17:29:48.668Z,65.87
2019-05-09T17:32:19.010Z,66.22
2019-05-09T17:34:49.334Z,65.54
2019-05-09T17:37:18.970Z,65.83
2019-05-09T17:39:54.486Z,66.49
2019-05-09T17:42:27.715Z,65.90
2019-05-09T17:45:00.312Z,65.90
2019-05-09T17:47:30.325Z,67.19
2019-05-09T17:50:07.694Z,67.22
2019-05-09T17:52:37.490Z,67.00
2019-05-09T17:55:07.932Z,67.00
2019-05-09T17:57:38.811Z,67.68
2019-05-09T18:00:12.870Z,67.33
2019-05-09T18:02:42.739Z,67.94
2019-05-09T18:05:12.421Z,67.94
2019-05-09T18:07:42.550Z,67.65
2019-05-09T18:10:12.391Z,67.65
2019-05-09T18:12:44.368Z,68.04
2019-05-09T18:15:15.419Z,68.25
2019-05-09T18:17:45.194Z,68.25
2019-05-09T18:20:17.435Z,68.17
2019-05-09T18:22:47.954Z,68.17
2019-05-09T18:25:18.885Z,67.99
2019-05-09T18:27:49.247Z,68.50
2019-05-09T18:30:18.895Z,68.61
2019-05-09T18:33:10.604Z,68.61
2019-05-09T18:35:40.790Z,69.13
2019-05-09T18:38:11.658Z,68.84
2019-05-09T18:40:41.488Z,69.34
2019-05-09T18:43:12.088Z,69.40
2019-05-09T18:45:44.136Z,70.26
2019-05-09T18:48:14.206Z,70.14
2019-05-09T18:50:44.059Z,70.14
2019-05-09T18:53:14.400Z,71.05
2019-05-09T18:55:44.492Z,70.73
2019-05-09T18:58:17.205Z,71.36
2019-05-09T19:00:47.094Z,71.33
2019-05-09T19:03:18.158Z,71.42
2019-05-09T19:05:47.920Z,71.42
2019-05-09T19:08:17.918Z,72.17
2019-05-09T19:13:27.350Z,70.69
2019-05-09T19:16:33.898Z,70.08
2019-05-09T19:19:16.838Z,70.08
2019-05-09T19:21:50.106Z,72.71
2019-05-09T19:24:19.739Z,72.62
2019-05-09T19:26:50.361Z,72.62
2019-05-09T19:29:22.319Z,73.96
2019-05-09T19:31:53.466Z,74.12
2019-05-09T19:34:28.321Z,74.68
2019-05-09T19:36:57.995Z,74.68
2019-05-09T19:39:34.778Z,75.92
2019-05-09T19:42:04.914Z,78.48
2019-05-09T19:44:34.938Z,78.48
2019-05-09T19:47:05.344Z,77.52
2019-05-09T19:49:35.038Z,80.30
2019-05-09T19:52:05.323Z,79.89
2019-05-09T19:54:35.419Z,79.89
2019-05-09T19:57:05.413Z,79.92
2019-05-09T19:59:38.704Z,79.92
2019-05-09T20:02:21.145Z,79.88
2019-05-09T20:04:55.357Z,81.90
2019-05-09T20:07:24.905Z,81.90
2019-05-09T20:10:04.066Z,82.13
2019-05-09T20:12:48.462Z,82.02
2019-05-09T20:15:19.653Z,82.60
2019-05-09T20:17:50.409Z,83.10
2019-05-09T20:20:24.144Z,82.88
2019-05-09T20:22:53.316Z,83.29
2019-05-09T20:25:23.822Z,83.38
2019-05-09T20:27:53.898Z,83.35
2019-05-09T20:30:27.031Z,83.35
2019-05-09T20:32:56.896Z,82.88
2019-05-09T20:35:26.839Z,84.18
2019-05-09T20:37:57.168Z,83.61
2019-05-09T20:40:28.613Z,84.19
2019-05-09T20:42:59.171Z,84.56
2019-05-09T20:45:29.311Z,84.48
2019-05-09T20:47:59.584Z,83.95
2019-05-09T20:50:35.862Z,83.95
2019-05-09T20:53:09.692Z,84.07
2019-05-09T20:55:38.184Z,83.97
2019-05-09T20:58:08.154Z,83.54
2019-05-09T21:00:38.241Z,83.54
2019-05-09T21:03:08.299Z,84.39
2019-05-09T21:05:41.075Z,84.18
2019-05-09T21:08:11.098Z,84.18
2019-05-09T21:10:41.761Z,85.30
2019-05-09T21:13:11.938Z,85.33
2019-05-09T21:15:41.819Z,85.33
2019-05-09T21:18:12.652Z,85.88
2019-05-09T21:20:43.299Z,85.01
2019-05-09T21:23:24.238Z,85.01
2019-05-09T21:25:47.196Z,85.41
2019-05-09T21:28:17.242Z,85.75
2019-05-09T21:30:49.303Z,85.75
2019-05-09T21:33:19.219Z,85.78
2019-05-09T21:35:48.944Z,86.02
2019-05-09T21:38:18.788Z,85.80
2019-05-09T21:40:48.557Z,85.80
2019-05-09T21:43:19.224Z,85.75
2019-05-09T21:45:49.142Z,86.14
2019-05-09T21:48:19.116Z,85.61
2019-05-09T21:50:51.051Z,85.96
2019-05-09T21:53:20.999Z,85.39
2019-05-09T21:55:50.983Z,85.56
2019-05-09T21:58:24.145Z,85.56
2019-05-09T22:00:55.214Z,85.88
2019-05-09T22:03:25.371Z,85.75
2019-05-09T22:05:55.764Z,85.75
2019-05-09T22:08:25.748Z,85.52
2019-05-09T22:10:55.537Z,85.60
2019-05-09T22:13:25.422Z,85.66
2019-05-09T22:15:55.179Z,85.66
2019-05-09T22:18:26.572Z,85.42
2019-05-09T22:20:56.301Z,86.36
2019-05-09T22:23:28.067Z,86.36
2019-05-09T22:25:57.738Z,86.16
2019-05-09T22:28:27.727Z,86.67
2019-05-09T22:30:57.330Z,86.67
2019-05-09T22:33:27.669Z,86.89
2019-05-09T22:35:57.494Z,86.85
2019-05-09T22:38:27.738Z,87.30
2019-05-09T22:40:57.404Z,87.30
2019-05-09T22:43:27.434Z,87.02
2019-05-09T22:45:57.465Z,87.02
2019-05-09T22:48:27.506Z,86.73
2019-05-09T22:50:57.329Z,86.73
2019-05-09T22:53:36.832Z,86.66
2019-05-09T22:56:07.538Z,86.66
2019-05-09T22:58:39.044Z,86.85
2019-05-09T23:01:09.910Z,86.31
2019-05-09T23:03:40.733Z,86.35
2019-05-09T23:06:10.691Z,86.42
2019-05-09T23:08:40.990Z,86.94
2019-05-09T23:11:10.742Z,86.94
2019-05-09T23:13:52.663Z,86.77
2019-05-09T23:16:24.136Z,86.86
2019-05-09T23:18:54.197Z,87.04
2019-05-09T23:21:26.186Z,86.18
2019-05-09T23:24:07.494Z,86.81
2019-05-09T23:26:37.157Z,86.29
2019-05-09T23:29:13.129Z,86.29
2019-05-09T23:32:07.323Z,86.78
2019-05-09T23:34:37.113Z,86.67
2019-05-09T23:37:07.031Z,86.52
2019-05-09T23:39:41.128Z,87.06
2019-05-09T23:42:10.833Z,87.06
2019-05-09T23:44:40.617Z,86.74
2019-05-09T23:47:10.766Z,86.31
2019-05-09T23:49:40.645Z,86.98
2019-05-09T23:52:10.251Z,86.57
2019-05-09T23:54:57.812Z,87.18
2019-05-09T23:57:45.962Z,87.20
